Time;durP1;ratioP1;P1;durP2;ratioP2;P2;SDS_P1;SDS_P2;PMS_P1;PMS_P2;Temp;Humidity;BMP_temperature;BMP_pressure;BME280_temperature;BME280_humidity;BME280_pressure;Samples;Min_cycle;Max_cycle;Signal;HPM_P1;HPM_P2
2022/12/07 00:01:22;;;;;;;9.15;5.50;;;;;;;0.95;100.00;98619.75;4469818;32;20144;-73
2022/12/07 00:03:52;;;;;;;10.20;5.90;;;;;;;0.96;100.00;98618.84;4469637;32;20474;-73
2022/12/07 00:06:20;;;;;;;10.85;6.22;;;;;;;0.96;100.00;98616.25;4467079;32;89826;-73
2022/12/07 00:08:47;;;;;;;9.88;5.32;;;;;;;0.95;100.00;98612.84;4476295;32;20580;-73
2022/12/07 00:11:18;;;;;;;9.93;5.28;;;;;;;0.93;100.00;98613.84;4485671;31;20135;-73
2022/12/07 00:13:45;;;;;;;10.57;5.68;;;;;;;0.92;100.00;98605.25;4485563;31;20395;-73
2022/12/07 00:16:17;;;;;;;13.60;5.62;;;;;;;0.91;100.00;98603.59;4485880;31;20085;-73
2022/12/07 00:18:45;;;;;;;10.40;5.62;;;;;;;0.90;100.00;98595.97;4485691;31;20447;-73
2022/12/07 00:21:18;;;;;;;9.65;5.53;;;;;;;0.87;100.00;98595.19;4476844;31;20097;-73
2022/12/07 00:23:47;;;;;;;10.63;5.37;;;;;;;0.86;100.00;98597.84;4470068;32;20100;-73
2022/12/07 00:26:23;;;;;;;11.63;5.25;;;;;;;0.77;100.00;98598.31;4469702;32;20092;-74
2022/12/07 00:28:56;;;;;;;9.73;4.97;;;;;;;0.71;100.00;98602.03;4469927;32;20438;-74
2022/12/07 00:31:25;;;;;;;10.52;5.18;;;;;;;0.64;100.00;98603.28;4468741;32;20085;-74
2022/12/07 00:33:52;;;;;;;11.90;5.40;;;;;;;0.59;100.00;98594.94;4469890;32;20092;-73
2022/12/07 00:36:22;;;;;;;9.65;5.37;;;;;;;0.57;100.00;98586.47;4469658;32;20116;-74
2022/12/07 00:38:54;;;;;;;11.12;5.20;;;;;;;0.57;100.00;98586.47;4469993;32;20217;-73
2022/12/07 00:41:23;;;;;;;8.25;4.40;;;;;;;0.78;100.00;98598.25;4469796;32;20088;-73
2022/12/07 00:43:51;;;;;;;12.25;4.82;;;;;;;0.87;100.00;98597.75;4470069;32;20107;-73
2022/12/07 00:46:19;;;;;;;8.50;4.93;;;;;;;0.98;100.00;98601.53;4469957;32;20454;-73
2022/12/07 00:48:47;;;;;;;7.95;4.53;;;;;;;1.07;100.00;98595.88;4469684;32;20140;-74
2022/12/07 00:51:16;;;;;;;7.55;4.30;;;;;;;1.22;100.00;98597.63;4469941;32;20461;-73
2022/12/07 00:53:43;;;;;;;7.93;4.22;;;;;;;1.32;100.00;98594.59;4469603;32;20109;-73
2022/12/07 00:56:19;;;;;;;9.57;4.50;;;;;;;1.31;100.00;98592.91;4469469;32;20085;-73
2022/12/07 00:59:14;;;;;;;8.52;4.35;;;;;;;1.33;100.00;98593.66;4469550;32;20096;-73
2022/12/07 01:01:41;;;;;;;9.60;4.53;;;;;;;1.29;100.00;98602.47;4468442;32;20135;-73
2022/12/07 01:04:08;;;;;;;9.40;4.70;;;;;;;1.32;100.00;98594.59;4469825;32;20418;-73
2022/12/07 01:06:35;;;;;;;7.18;4.22;;;;;;;1.29;100.00;98585.25;4469433;32;20552;-74
2022/12/07 01:09:04;;;;;;;8.13;4.80;;;;;;;1.24;100.00;98579.50;4477679;32;20116;-73
2022/12/07 01:11:31;;;;;;;7.72;4.15;;;;;;;1.13;100.00;98574.09;4485338;31;20189;-73
2022/12/07 01:14:00;;;;;;;7.30;4.12;;;;;;;1.02;100.00;98595.31;4485375;31;20388;-73
2022/12/07 01:16:30;;;;;;;8.90;5.00;;;;;;;1.02;100.00;98582.41;4484958;31;20155;-74
2022/12/07 01:18:58;;;;;;;10.10;5.20;;;;;;;1.00;100.00;98589.38;4485300;31;20119;-73
2022/12/07 01:21:28;;;;;;;9.98;5.37;;;;;;;0.94;100.00;98584.53;4474820;31;20175;-73
2022/12/07 01:23:57;;;;;;;7.95;4.57;;;;;;;0.94;100.00;98581.97;4469572;32;20614;-74
2022/12/07 01:26:25;;;;;;;10.43;5.05;;;;;;;1.00;100.00;98587.66;4469564;32;20524;-73
2022/12/07 01:28:54;;;;;;;10.98;5.50;;;;;;;1.01;100.00;98581.56;4469561;32;20092;-73
2022/12/07 01:31:24;;;;;;;10.48;5.20;;;;;;;1.02;100.00;98583.22;4469503;32;20119;-73
2022/12/07 01:33:56;;;;;;;10.65;5.80;;;;;;;1.04;100.00;98578.00;4469502;32;20156;-73
2022/12/07 01:36:29;;;;;;;12.37;6.05;;;;;;;1.10;100.00;98575.06;4469294;32;20082;-73
2022/12/07 01:39:02;;;;;;;11.77;6.05;;;;;;;1.20;100.00;98578.84;4469470;32;20089;-73
2022/12/07 01:41:31;;;;;;;10.25;5.93;;;;;;;1.26;100.00;98575.09;4469712;32;20099;-73
2022/12/07 01:44:20;;;;;;;8.10;5.28;;;;;;;1.34;100.00;98587.59;4469406;32;20451;-73
2022/12/07 01:46:55;;;;;;;11.98;6.18;;;;;;;1.36;100.00;98583.16;4469335;32;20140;-73
2022/12/07 01:49:28;;;;;;;11.93;5.85;;;;;;;1.44;100.00;98567.25;4469363;32;20132;-73
2022/12/07 01:52:05;;;;;;;9.75;5.87;;;;;;;1.46;100.00;98576.59;4468171;32;20116;-73
2022/12/07 01:54:34;;;;;;;10.10;5.68;;;;;;;1.57;100.00;98563.91;4468167;32;20461;-73
2022/12/07 01:57:01;;;;;;;10.43;5.80;;;;;;;1.63;100.00;98562.72;4468081;32;20092;-73
2022/12/07 01:59:28;;;;;;;9.82;5.47;;;;;;;1.64;100.00;98559.25;4467928;32;20112;-73
2022/12/07 02:01:56;;;;;;;11.85;5.95;;;;;;;1.64;100.00;98558.41;4468992;32;20119;-73
2022/12/07 02:04:23;;;;;;;10.75;5.70;;;;;;;1.66;100.00;98561.72;4469063;32;20485;-73
2022/12/07 02:06:51;;;;;;;10.48;5.75;;;;;;;1.66;100.00;98564.31;4468635;32;20622;-73
2022/12/07 02:09:18;;;;;;;8.82;5.78;;;;;;;1.67;100.00;98561.66;4478972;32;20126;-73
2022/12/07 02:11:46;;;;;;;10.70;5.90;;;;;;;1.66;100.00;98559.97;4484563;31;20106;-74
2022/12/07 02:14:13;;;;;;;9.95;5.62;;;;;;;1.66;100.00;98561.72;4485050;31;20433;-73
2022/12/07 02:16:46;;;;;;;9.20;5.12;;;;;;;1.70;100.00;98556.31;4484748;32;20109;-73
2022/12/07 02:19:28;;;;;;;10.43;5.47;;;;;;;1.58;100.00;98567.34;4484773;31;20151;-73
2022/12/07 02:22:07;;;;;;;9.48;5.20;;;;;;;1.57;100.00;98571.62;4471077;31;20490;-73
2022/12/07 02:24:52;;;;;;;11.82;6.22;;;;;;;1.60;100.00;98570.66;4469007;32;20103;-73
2022/12/07 02:27:38;;;;;;;;;;;;;;;1.67;100.00;98568.56;4467046;32;20096;-73
2022/12/07 02:30:11;;;;;;;15.05;6.28;;;;;;;1.64;100.00;98554.06;4469007;32;19992;-73
2022/12/07 02:32:56;;;;;;;15.50;7.03;;;;;;;1.52;100.00;98563.34;4468643;32;20114;-73
2022/12/07 02:35:30;;;;;;;15.48;7.53;;;;;;;1.48;100.00;98558.44;4468878;32;20081;-73
2022/12/07 02:38:18;;;;;;;13.05;7.10;;;;;;;1.53;100.00;98557.25;4467364;32;20130;-73
2022/12/07 02:41:04;;;;;;;13.18;7.22;;;;;;;1.52;100.00;98558.16;4468734;32;20437;-73
2022/12/07 02:43:55;;;;;;;10.65;6.18;;;;;;;1.62;100.00;98544.75;4467341;32;20629;-73
2022/12/07 02:46:30;;;;;;;13.35;6.90;;;;;;;1.64;100.00;98548.91;4468814;32;20689;-73
2022/12/07 02:48:59;;;;;;;11.35;6.53;;;;;;;1.70;100.00;98551.16;4467256;32;20105;-73
2022/12/07 02:51:30;;;;;;;14.35;7.15;;;;;;;1.78;100.00;98550.72;4467534;32;20117;-73
2022/12/07 02:53:57;;;;;;;14.00;7.00;;;;;;;1.82;100.00;98543.59;4468579;32;20458;-73
2022/12/07 02:56:27;;;;;;;13.80;7.22;;;;;;;1.89;100.00;98547.50;4468450;32;20119;-73
2022/12/07 02:59:12;;;;;;;14.45;7.18;;;;;;;1.90;100.00;98546.59;4468470;32;20164;-73
2022/12/07 03:02:15;;;;;;;12.37;7.03;;;;;;;2.01;100.00;98549.38;4468266;32;20185;-73
2022/12/07 03:04:50;;;;;;;14.65;6.95;;;;;;;2.02;100.00;98550.25;4434637;32;20671;-73
2022/12/07 03:07:55;;;;;;;13.88;7.20;;;;;;;2.00;100.00;98550.31;4434791;32;20216;-73
2022/12/07 03:10:31;;;;;;;13.23;6.60;;;;;;;2.02;100.00;98550.25;4404272;32;20186;-73
2022/12/07 03:13:29;;;;;;;12.98;6.93;;;;;;;2.03;100.00;98554.47;4404181;32;20090;-73
2022/12/07 03:16:25;;;;;;;9.93;6.12;;;;;;;2.08;100.00;98542.12;4403985;32;20220;-73
2022/12/07 03:18:59;;;;;;;13.23;7.05;;;;;;;2.05;100.00;98543.13;4402635;32;20082;-73
2022/12/07 03:21:31;;;;;;;15.25;7.30;;;;;;;2.08;100.00;98542.12;4413804;32;20152;-73
2022/12/07 03:24:00;;;;;;;12.05;6.80;;;;;;;2.13;100.00;98540.94;4419047;32;20105;-73
2022/12/07 03:26:32;;;;;;;11.77;6.97;;;;;;;2.13;100.00;98532.34;4419115;32;20133;-74
2022/12/07 03:29:02;;;;;;;14.32;7.62;;;;;;;2.22;100.00;98534.38;4418920;32;20159;-73
2022/12/07 03:31:33;;;;;;;13.88;7.43;;;;;;;2.18;100.00;98527.75;4419017;32;20689;-73
2022/12/07 03:34:13;;;;;;;16.83;7.30;;;;;;;2.19;100.00;98539.72;4406481;32;20124;-73
2022/12/07 03:36:48;;;;;;;13.00;6.75;;;;;;;2.25;100.00;98536.78;4418893;32;20133;-73
2022/12/07 03:39:41;;;;;;;13.27;7.32;;;;;;;2.27;100.00;98534.97;4419797;32;20560;-73
2022/12/07 03:42:09;;;;;;;18.45;7.32;;;;;;;2.26;100.00;98537.63;4432207;32;20109;-73
2022/12/07 03:44:39;;;;;;;13.13;7.20;;;;;;;2.19;100.00;98536.31;4436546;32;20142;-73
2022/12/07 03:47:13;;;;;;;16.45;7.90;;;;;;;2.21;100.00;98548.25;4442501;32;20096;-73
2022/12/07 03:49:54;;;;;;;12.68;7.53;;;;;;;2.18;100.00;98551.00;4470275;32;20426;-73
2022/12/07 03:52:21;;;;;;;14.95;8.32;;;;;;;2.24;100.00;98549.81;4468875;32;20434;-73
2022/12/07 03:54:54;;;;;;;12.82;7.75;;;;;;;2.27;100.00;98547.88;4469976;32;20104;-73
2022/12/07 03:57:21;;;;;;;15.00;7.60;;;;;;;2.27;100.00;98547.88;4468643;32;20093;-73
2022/12/07 03:59:49;;;;;;;13.18;7.28;;;;;;;2.30;100.00;98546.84;4468668;32;20088;-73
2022/12/07 04:02:17;;;;;;;15.38;7.82;;;;;;;2.29;100.00;98552.97;4468559;32;20197;-73
2022/12/07 04:04:44;;;;;;;14.63;8.55;;;;;;;2.35;100.00;98544.00;4468717;32;20132;-73
2022/12/07 04:07:12;;;;;;;13.73;8.00;;;;;;;2.25;100.00;98548.88;4469800;32;20093;-73
2022/12/07 04:09:39;;;;;;;13.80;7.93;;;;;;;2.25;100.00;98549.72;4482200;32;20149;-73
2022/12/07 04:12:07;;;;;;;16.35;8.32;;;;;;;2.27;100.00;98547.88;4485986;32;20139;-73
2022/12/07 04:14:34;;;;;;;16.00;8.63;;;;;;;2.30;100.00;98550.28;4485561;31;20167;-73
2022/12/07 04:17:01;;;;;;;14.48;7.75;;;;;;;2.38;100.00;98543.84;4485781;31;20088;-73
2022/12/07 04:19:31;;;;;;;14.98;7.65;;;;;;;2.34;100.00;98547.53;4485489;32;20174;-73
2022/12/07 04:22:00;;;;;;;14.75;8.15;;;;;;;2.31;100.00;98538.19;4471744;31;20122;-73
2022/12/07 04:24:27;;;;;;;17.15;7.70;;;;;;;2.28;100.00;98543.53;4469845;32;20100;-73
2022/12/07 04:26:55;;;;;;;16.30;8.05;;;;;;;2.33;100.00;98535.50;4469683;32;20187;-73
2022/12/07 04:29:22;;;;;;;13.27;7.32;;;;;;;2.40;100.00;98539.41;4469723;32;20085;-73
2022/12/07 04:31:50;;;;;;;16.90;9.70;;;;;;;2.44;100.00;98548.66;4469675;32;20170;-73
2022/12/07 04:34:17;;;;;;;14.02;8.52;;;;;;;2.38;100.00;98539.50;4469763;32;20453;-73
2022/12/07 04:36:45;;;;;;;15.25;8.00;;;;;;;2.40;100.00;98541.97;4469864;32;20101;-73
2022/12/07 04:39:26;;;;;;;16.55;8.13;;;;;;;2.34;100.00;98542.34;4469704;32;20097;-73
2022/12/07 04:41:54;;;;;;;15.68;8.75;;;;;;;2.40;100.00;98542.81;4469897;32;20161;-73
2022/12/07 04:44:22;;;;;;;13.88;8.13;;;;;;;2.40;100.00;98537.63;4469550;32;20243;-73
2022/12/07 04:46:51;;;;;;;16.30;8.45;;;;;;;2.42;100.00;98540.13;4469626;32;20157;-73
2022/12/07 04:49:18;;;;;;;16.45;8.30;;;;;;;2.36;100.00;98538.72;4469083;32;20239;-72
2022/12/07 04:51:47;;;;;;;13.82;7.90;;;;;;;2.33;100.00;98540.69;4469755;32;20112;-73
2022/12/07 04:54:15;;;;;;;15.98;8.55;;;;;;;2.35;100.00;98546.56;4469801;32;20144;-72
2022/12/07 04:56:42;;;;;;;16.58;8.95;;;;;;;2.34;100.00;98550.09;4469704;32;20097;-73
2022/12/07 04:59:11;;;;;;;13.25;8.23;;;;;;;2.35;100.00;98542.25;4469644;32;20096;-73
2022/12/07 05:01:38;;;;;;;14.52;8.43;;;;;;;2.25;100.00;98548.88;4469359;32;20108;-73
2022/12/07 05:04:06;;;;;;;18.95;9.93;;;;;;;2.29;100.00;98551.19;4469329;32;20116;-73
2022/12/07 05:06:33;;;;;;;15.88;8.18;;;;;;;2.15;100.00;98553.78;4469452;32;20175;-73
2022/12/07 05:09:00;;;;;;;15.30;8.10;;;;;;;2.21;100.00;98563.75;4472206;32;20113;-73
2022/12/07 05:11:39;;;;;;;20.58;8.40;;;;;;;2.19;100.00;98559.59;4469442;32;20140;-73
2022/12/07 05:14:11;;;;;;;16.27;8.23;;;;;;;2.21;100.00;98558.59;4469480;32;20088;-74
2022/12/07 05:16:39;;;;;;;17.65;8.75;;;;;;;2.29;100.00;98564.12;4469850;32;20136;-74
2022/12/07 05:19:07;;;;;;;16.60;8.55;;;;;;;2.39;100.00;98555.81;4475204;32;20153;-73
2022/12/07 05:21:34;;;;;;;15.10;7.87;;;;;;;2.35;100.00;98555.19;4473450;31;20105;-73
2022/12/07 05:24:03;;;;;;;16.55;8.00;;;;;;;2.34;100.00;98553.50;4468650;32;20176;-73
2022/12/07 05:26:30;;;;;;;17.02;8.05;;;;;;;2.42;100.00;98550.47;4469363;32;20085;-73
2022/12/07 05:28:57;;;;;;;17.05;7.80;;;;;;;2.45;100.00;98547.69;4469270;32;20076;-73
2022/12/07 05:31:26;;;;;;;16.08;7.87;;;;;;;2.43;100.00;98542.63;4467984;32;20123;-73
2022/12/07 05:33:53;;;;;;;14.38;7.22;;;;;;;2.43;100.00;98549.56;4469370;32;20704;-73
2022/12/07 05:36:21;;;;;;;14.93;8.27;;;;;;;2.45;100.00;98542.53;4468910;32;20088;-74
2022/12/07 05:38:48;;;;;;;13.90;7.53;;;;;;;2.48;100.00;98534.59;4468666;32;20096;-74
2022/12/07 05:44:04;;;;;;;12.18;7.32;;;;;;;2.57;100.00;98536.63;4469201;32;20144;-74
2022/12/07 05:46:32;;;;;;;12.57;6.28;;;;;;;2.63;100.00;98548.34;4469402;32;20156;-74
2022/12/07 05:48:59;;;;;;;16.80;7.65;;;;;;;2.55;100.00;98548.81;4468772;32;20435;-74
2022/12/07 05:51:26;;;;;;;17.75;7.80;;;;;;;2.52;100.00;98545.59;4468689;32;20164;-74
2022/12/07 05:53:54;;;;;;;17.83;10.35;;;;;;;2.54;100.00;98538.56;4469140;32;20114;-74
2022/12/07 05:56:21;;;;;;;39.35;17.25;;;;;;;2.51;100.00;98544.75;4468676;32;20453;-73
2022/12/07 06:01:34;;;;;;;14.05;7.43;;;;;;;2.55;100.00;98548.81;4467254;32;20081;-74
2022/12/07 06:04:01;;;;;;;13.48;7.30;;;;;;;2.48;100.00;98548.38;4468280;32;20164;-74
2022/12/07 06:06:28;;;;;;;14.13;7.72;;;;;;;2.47;100.00;98548.47;4467228;32;20172;-74
2022/12/07 06:08:55;;;;;;;12.10;7.25;;;;;;;2.46;100.00;98552.78;4474969;32;20077;-74
2022/12/07 06:14:08;;;;;;;12.80;7.20;;;;;;;2.45;100.00;98555.47;4483368;31;20104;-73
2022/12/07 06:16:36;;;;;;;13.30;7.93;;;;;;;2.49;100.00;98546.59;4483500;31;20654;-73
2022/12/07 06:19:03;;;;;;;12.45;7.40;;;;;;;2.47;100.00;98551.03;4475492;31;20137;-73
2022/12/07 06:21:30;;;;;;;14.10;6.80;;;;;;;2.47;100.00;98548.47;4476071;31;20104;-73
2022/12/07 06:23:57;;;;;;;14.00;7.10;;;;;;;2.41;100.00;98549.66;4475274;32;20243;-74
2022/12/07 06:26:24;;;;;;;13.57;6.72;;;;;;;2.43;100.00;98546.97;4477764;32;20164;-74
2022/12/07 06:28:51;;;;;;;13.45;6.45;;;;;;;2.41;100.00;98551.41;4472833;31;20096;-74
2022/12/07 06:31:18;;;;;;;11.63;6.80;;;;;;;2.43;100.00;98550.38;4475098;32;20161;-74
2022/12/07 06:33:46;;;;;;;13.02;6.65;;;;;;;2.42;100.00;98550.47;4480402;31;20107;-74
2022/12/07 06:36:13;;;;;;;13.88;7.05;;;;;;;2.43;100.00;98559.91;4476423;31;20139;-74
2022/12/07 06:38:40;;;;;;;16.87;8.13;;;;;;;2.45;100.00;98555.47;4470274;31;20336;-74
2022/12/07 06:41:07;;;;;;;14.50;7.70;;;;;;;2.48;100.00;98561.31;4477955;31;20478;-74
2022/12/07 06:43:34;;;;;;;13.20;7.37;;;;;;;2.55;100.00;98571.28;4475792;31;20355;-74
2022/12/07 06:46:01;;;;;;;12.10;6.50;;;;;;;2.60;100.00;98564.88;4475465;32;20100;-74
2022/12/07 06:48:29;;;;;;;10.15;6.10;;;;;;;2.62;100.00;98570.81;4475379;31;20118;-74
2022/12/07 06:50:56;;;;;;;13.05;6.47;;;;;;;2.64;100.00;98578.47;4470677;32;20108;-74
2022/12/07 06:53:23;;;;;;;15.25;6.65;;;;;;;2.63;100.00;98577.66;4477477;32;20160;-73
2022/12/07 06:55:50;;;;;;;15.70;7.90;;;;;;;2.53;100.00;98578.28;4476891;32;20097;-74
2022/12/07 06:58:17;;;;;;;16.35;8.10;;;;;;;2.55;100.00;98577.25;4474531;31;20123;-73
2022/12/07 07:00:45;;;;;;;14.52;7.97;;;;;;;2.60;100.00;98582.97;4472804;31;20511;-74
2022/12/07 07:03:12;;;;;;;11.23;7.03;;;;;;;2.60;100.00;98575.22;4479920;31;20598;-73
2022/12/07 07:05:39;;;;;;;15.02;7.68;;;;;;;2.67;100.00;98571.34;4468742;32;20104;-73
2022/12/07 07:08:06;;;;;;;14.57;7.68;;;;;;;2.64;100.00;98570.72;4475743;32;20097;-73
2022/12/07 07:10:50;;;;;;;12.20;6.95;;;;;;;2.68;100.00;98572.22;4479244;32;20119;-74
2022/12/07 07:13:17;;;;;;;12.95;7.53;;;;;;;2.74;100.00;98570.97;4478667;32;20120;-73
2022/12/07 07:15:44;;;;;;;14.48;7.75;;;;;;;2.79;100.00;98568.97;4478406;31;20500;-72
2022/12/07 07:18:11;;;;;;;12.20;6.62;;;;;;;2.77;100.00;98570.78;4480377;32;20081;-73
2022/12/07 07:20:39;;;;;;;16.02;7.87;;;;;;;2.69;100.00;98578.19;4479609;32;20803;-73
2022/12/07 07:23:06;;;;;;;16.75;8.10;;;;;;;2.66;100.00;98574.88;4480901;32;20174;-73
2022/12/07 07:25:33;;;;;;;14.00;7.28;;;;;;;2.69;100.00;98573.03;4478971;32;20095;-73
2022/12/07 07:28:02;;;;;;;17.12;8.27;;;;;;;2.74;100.00;98577.00;4484332;31;20123;-74
2022/12/07 07:30:33;;;;;;;15.27;8.45;;;;;;;2.78;100.00;98581.06;4483696;31;20430;-76
2022/12/07 07:33:05;;;;;;;17.67;8.10;;;;;;;2.76;100.00;98579.50;4480536;31;20107;-75
2022/12/07 07:35:33;;;;;;;14.43;8.52;;;;;;;2.80;100.00;98579.22;4474631;32;20126;-76
2022/12/07 07:38:01;;;;;;;15.80;8.63;;;;;;;2.77;100.00;98579.41;4484700;31;20135;-77
2022/12/07 07:40:29;;;;;;;15.20;8.85;;;;;;;2.90;100.00;98579.47;4483065;32;20189;-75
2022/12/07 07:42:56;;;;;;;16.08;8.50;;;;;;;2.88;100.00;98578.75;4485142;31;20180;-74
2022/12/07 07:45:25;;;;;;;17.35;8.48;;;;;;;2.83;100.00;98580.78;4482956;31;20180;-74
2022/12/07 07:47:52;;;;;;;14.27;7.95;;;;;;;2.96;100.00;98579.09;4484557;31;20179;-77
2022/12/07 07:50:20;;;;;;;15.95;8.65;;;;;;;2.99;100.00;98581.50;4484408;31;20122;-74
2022/12/07 07:52:48;;;;;;;18.15;9.07;;;;;;;3.12;100.00;98578.16;4481125;31;20901;-75
2022/12/07 07:55:15;;;;;;;17.12;8.90;;;;;;;3.04;100.00;98588.16;4479299;32;20510;-79
2022/12/07 07:57:42;;;;;;;15.73;8.90;;;;;;;3.09;100.00;98586.13;4475082;31;20164;-75
2022/12/07 08:00:14;;;;;;;16.48;9.00;;;;;;;3.12;100.00;98580.75;4479317;32;20126;-74
2022/12/07 08:02:42;;;;;;;17.00;8.77;;;;;;;3.19;100.00;98582.03;4484352;31;20108;-75
2022/12/07 08:05:13;;;;;;;14.68;8.15;;;;;;;3.26;100.00;98582.50;4482275;31;20122;-74
2022/12/07 08:07:41;;;;;;;14.50;8.15;;;;;;;3.28;100.00;98580.63;4481884;31;20142;-74
2022/12/07 08:10:10;;;;;;;14.45;8.68;;;;;;;3.32;100.00;98582.94;4464910;32;20106;-73
2022/12/07 08:13:10;;;;;;;18.62;8.82;;;;;;;3.36;100.00;98583.56;4466843;32;20104;-74
2022/12/07 08:15:27;;;;;;;15.95;8.63;;;;;;;3.45;100.00;98587.34;4484006;32;20155;-75
2022/12/07 08:17:54;;;;;;;18.60;9.20;;;;;;;3.56;100.00;98592.69;4484271;31;20135;-74
2022/12/07 08:20:21;;;;;;;19.70;9.50;;;;;;;3.59;100.00;98592.50;4480559;32;20097;-72
2022/12/07 08:22:49;;;;;;;16.27;8.25;;;;;;;3.65;100.00;98596.44;4473868;32;20116;-74
2022/12/07 08:25:16;;;;;;;17.20;9.18;;;;;;;3.53;100.00;98595.47;4480874;32;20187;-74
2022/12/07 08:27:43;;;;;;;16.45;8.07;;;;;;;3.62;100.00;98600.06;4480127;31;20108;-76
2022/12/07 08:30:11;;;;;;;18.35;9.23;;;;;;;3.60;100.00;98596.72;4467194;31;20097;-75
2022/12/07 08:32:38;;;;;;;21.70;9.45;;;;;;;3.54;100.00;98594.53;4482680;32;20126;-74
2022/12/07 08:35:05;;;;;;;18.98;9.68;;;;;;;3.61;100.00;98589.81;4480552;31;20100;-73
2022/12/07 08:37:33;;;;;;;18.10;9.48;;;;;;;3.58;100.00;98588.25;4479184;32;20092;-74
2022/12/07 08:40:00;;;;;;;19.85;10.13;;;;;;;3.63;100.00;98588.75;4481491;32;20164;-75
2022/12/07 08:42:29;;;;;;;23.23;10.55;;;;;;;3.80;100.00;98587.72;4482166;31;20107;-74
2022/12/07 08:44:57;;;;;;;21.77;10.65;;;;;;;3.86;100.00;98587.31;4483451;32;20109;-73
2022/12/07 08:47:24;;;;;;;21.98;10.52;;;;;;;3.91;100.00;98589.59;4482118;31;20088;-76
2022/12/07 08:49:52;;;;;;;23.62;10.95;;;;;;;3.93;100.00;98585.13;4481503;32;20104;-75
2022/12/07 08:52:20;;;;;;;19.00;10.05;;;;;;;3.90;100.00;98588.75;4477961;31;20155;-73
2022/12/07 08:54:47;;;;;;;22.17;11.12;;;;;;;4.10;100.00;98591.81;4479226;31;20123;-72
2022/12/07 08:57:14;;;;;;;19.42;9.60;;;;;;;4.11;100.00;98590.06;4477017;32;20093;-72
2022/12/07 08:59:41;;;;;;;20.40;11.02;;;;;;;4.22;100.00;98590.19;4476796;32;20143;-71
2022/12/07 09:02:08;;;;;;;19.80;9.43;;;;;;;4.17;100.00;98590.47;4479272;31;20097;-72
2022/12/07 09:04:35;;;;;;;20.10;9.68;;;;;;;4.21;100.00;98598.87;4477352;31;20096;-71
2022/12/07 09:07:05;;;;;;;18.23;9.50;;;;;;;4.29;100.00;98599.22;4477305;32;20111;-71
2022/12/07 09:09:33;;;;;;;26.67;11.35;;;;;;;4.15;100.00;98604.47;4475862;32;20108;-70
2022/12/07 09:12:00;;;;;;;21.92;10.52;;;;;;;4.23;100.00;98599.63;4477161;32;20384;-72
2022/12/07 09:14:27;;;;;;;18.95;10.50;;;;;;;4.36;100.00;98595.28;4478535;32;20155;-71
2022/12/07 09:16:54;;;;;;;23.17;10.98;;;;;;;4.39;100.00;98584.72;4476996;32;20136;-72
2022/12/07 09:19:21;;;;;;;22.00;11.15;;;;;;;4.44;100.00;98587.81;4477901;32;20617;-72
2022/12/07 09:21:49;;;;;;;21.23;10.77;;;;;;;4.42;100.00;98592.28;4479014;32;20138;-72
2022/12/07 09:24:16;;;;;;;24.10;11.50;;;;;;;4.37;100.00;98585.75;4476256;31;20529;-73
2022/12/07 09:26:44;;;;;;;22.13;10.32;;;;;;;4.31;100.00;98591.34;4475229;31;20832;-74
2022/12/07 09:29:11;;;;;;;23.15;10.63;;;;;;;4.32;100.00;98583.47;4475279;32;20127;-74
2022/12/07 09:31:38;;;;;;;23.45;11.48;;;;;;;4.35;100.00;98579.84;4479174;31;20499;-73
2022/12/07 09:34:06;;;;;;;19.37;9.93;;;;;;;4.50;100.00;98577.97;4479989;32;20101;-75
2022/12/07 09:36:33;;;;;;;19.52;10.48;;;;;;;4.60;100.00;98581.59;4471772;31;20160;-73
2022/12/07 09:39:00;;;;;;;25.42;11.55;;;;;;;4.83;100.00;98579.19;4468214;32;20089;-75
2022/12/07 09:41:29;;;;;;;23.62;10.85;;;;;;;4.92;100.00;98575.97;4475328;32;20119;-73
2022/12/07 09:44:03;;;;;;;20.05;9.95;;;;;;;5.00;100.00;98583.22;4475131;32;20160;-74
2022/12/07 09:46:36;;;;;;;20.25;10.07;;;;;;;4.94;100.00;98580.12;4479780;32;20114;-74
2022/12/07 09:49:05;;;;;;;20.40;9.77;;;;;;;4.87;100.00;98580.66;4483772;32;20152;-74
2022/12/07 09:51:32;;;;;;;19.58;9.65;;;;;;;4.74;100.00;98575.47;4482568;31;20561;-75
2022/12/07 09:54:00;;;;;;;23.35;10.20;;;;;;;4.83;100.00;98571.41;4482742;31;20100;-74
2022/12/07 09:56:30;;;;;;;23.08;10.75;;;;;;;4.92;100.00;98582.00;4480276;32;20169;-74
2022/12/07 09:59:01;;;;;;;24.58;10.73;;;;;;;4.92;100.00;98575.97;4474760;32;20145;-75
2022/12/07 10:01:31;;;;;;;18.92;10.32;;;;;;;4.94;100.00;98584.50;4477261;32;20104;-74
2022/12/07 10:04:06;;;;;;;20.48;10.88;;;;;;;5.11;100.00;98581.53;4478399;32;20101;-75
2022/12/07 10:06:33;;;;;;;20.15;9.38;;;;;;;5.08;100.00;98576.56;4476942;32;20431;-74
2022/12/07 10:09:01;;;;;;;18.52;9.35;;;;;;;5.19;100.00;98578.41;4477203;32;20181;-75
2022/12/07 10:11:28;;;;;;;17.05;9.00;;;;;;;5.14;100.00;98578.72;4477727;32;20143;-73
2022/12/07 10:14:11;;;;;;;20.35;10.70;;;;;;;5.27;100.00;98567.50;4476208;31;20611;-74
2022/12/07 10:16:41;;;;;;;19.27;9.20;;;;;;;5.37;100.00;98568.47;4474169;32;20104;-75
2022/12/07 10:19:33;;;;;;;17.70;9.15;;;;;;;5.49;100.00;98562.41;4479540;32;20100;-72
2022/12/07 10:22:09;;;;;;;17.27;8.73;;;;;;;5.84;100.00;98559.06;4474796;32;20108;-75
2022/12/07 10:24:39;;;;;;;17.67;9.18;;;;;;;5.76;100.00;98553.56;4480922;31;20168;-73
2022/12/07 10:27:31;;;;;;;17.37;8.80;;;;;;;5.79;100.00;98545.53;4480364;32;20120;-72
2022/12/07 10:29:59;;;;;;;17.62;9.18;;;;;;;5.74;100.00;98542.47;4480353;32;20146;-73
2022/12/07 10:32:35;;;;;;;19.45;9.73;;;;;;;5.83;100.00;98556.56;4483236;31;20904;-72
2022/12/07 10:35:21;;;;;;;17.48;9.05;;;;;;;5.78;100.00;98550.84;4479845;31;20092;-71
2022/12/07 10:37:49;;;;;;;20.23;9.70;;;;;;;5.78;100.00;98548.25;4478340;32;20097;-70
2022/12/07 10:40:33;;;;;;;15.48;8.82;;;;;;;5.90;100.00;98555.16;4481393;31;20180;-71
2022/12/07 10:43:02;;;;;;;19.17;9.35;;;;;;;5.95;100.00;98553.06;4474814;32;20151;-72
2022/12/07 10:45:30;;;;;;;15.38;8.18;;;;;;;6.10;100.00;98558.94;4475778;32;20100;-72
2022/12/07 10:48:18;;;;;;;15.95;8.05;;;;;;;6.13;100.00;98556.09;4473664;32;20153;-74
2022/12/07 10:51:01;;;;;;;15.13;7.53;;;;;;;5.93;100.00;98544.53;4481877;31;20544;-73
2022/12/07 10:53:34;;;;;;;17.85;7.93;;;;;;;5.86;100.00;98551.97;4485268;31;20114;-74
2022/12/07 10:56:25;;;;;;;15.43;8.18;;;;;;;5.90;100.00;98552.56;4482859;31;20171;-73
2022/12/07 10:58:58;;;;;;;15.10;7.70;;;;;;;6.06;100.00;98544.50;4433718;32;20119;-72
2022/12/07 11:01:34;;;;;;;12.52;7.00;;;;;;;6.15;100.00;98549.00;4432126;32;20181;-73
2022/12/07 11:04:07;;;;;;;13.50;7.20;;;;;;;5.88;100.00;98549.25;4427444;32;20152;-72
2022/12/07 11:06:40;;;;;;;10.90;6.20;;;;;;;5.78;100.00;98545.66;4425076;32;20177;-72
2022/12/07 11:09:29;;;;;;;15.18;6.57;;;;;;;5.81;100.00;98532.44;4421907;32;20093;-72
2022/12/07 11:12:25;;;;;;;13.32;6.87;;;;;;;5.90;100.00;98536.13;4433130;32;20216;-72
2022/12/07 11:15:06;;;;;;;11.52;6.97;;;;;;;5.95;100.00;98540.06;4435928;32;20130;-72
2022/12/07 11:17:42;;;;;;;12.37;6.85;;;;;;;5.94;100.00;98533.19;4435872;32;20105;-71
2022/12/07 11:20:46;;;;;;;14.40;6.60;;;;;;;5.95;100.00;98531.41;4433463;32;20117;-73
2022/12/07 11:23:23;;;;;;;14.00;7.65;;;;;;;5.99;100.00;98522.47;4423265;32;20102;-72
2022/12/07 11:25:57;;;;;;;13.80;6.53;;;;;;;6.07;100.00;98529.69;4424313;32;20114;-72
2022/12/07 11:28:40;;;;;;;14.00;7.20;;;;;;;5.98;100.00;98523.41;4422962;32;20093;-72
2022/12/07 11:31:21;;;;;;;13.43;5.93;;;;;;;6.07;100.00;98533.16;4433897;32;20734;-73
2022/12/07 11:34:07;;;;;;;15.50;6.45;;;;;;;5.87;100.00;98531.97;4434542;32;20117;-74
2022/12/07 11:36:41;;;;;;;9.95;5.65;;;;;;;5.99;100.00;98532.88;4470852;32;20091;-73
2022/12/07 11:39:37;;;;;;;11.60;6.37;;;;;;;6.00;100.00;98540.56;4481092;32;20096;-73
2022/12/07 11:42:18;;;;;;;11.05;6.20;;;;;;;5.89;100.00;98534.47;4468945;32;20387;-73
2022/12/07 11:45:09;;;;;;;14.38;6.43;;;;;;;5.96;100.00;98535.69;4480071;31;20108;-72
2022/12/07 11:47:36;;;;;;;12.93;6.65;;;;;;;5.66;100.00;98530.03;4481833;32;20163;-72
2022/12/07 11:50:41;;;;;;;13.45;7.10;;;;;;;5.53;100.00;98529.25;4478540;32;20096;-72
2022/12/07 11:53:08;;;;;;;27.23;7.80;;;;;;;5.74;100.00;98529.47;4476287;32;20084;-72
2022/12/07 11:55:51;;;;;;;13.38;7.12;;;;;;;5.65;100.00;98530.97;4479969;31;20156;-71